Time;durP1;ratioP1;P1;durP2;ratioP2;P2;SDS_P1;SDS_P2;PMS_P1;PMS_P2;Temp;Humidity;BMP_temperature;BMP_pressure;BME280_temperature;BME280_humidity;BME280_pressure;Samples;Min_cycle;Max_cycle;Signal;HPM_P1;HPM_P2
2022/08/28 00:00:04;;;;;;;5.45;3.78;;;;;;;18.83;63.35;100756.59;5005431;28;20065;-58
2022/08/28 00:02:32;;;;;;;7.53;3.88;;;;;;;18.53;64.03;100753.66;5007747;28;20057;-58
2022/08/28 00:04:59;;;;;;;5.55;3.42;;;;;;;18.73;63.60;100743.81;5008716;28;20473;-58
2022/08/28 00:07:25;;;;;;;4.95;3.95;;;;;;;18.89;63.42;100752.03;4997446;28;20077;-56
2022/08/28 00:09:51;;;;;;;9.10;4.50;;;;;;;18.37;64.15;100744.59;5000145;28;20022;-57
2022/08/28 00:12:18;;;;;;;7.50;5.15;;;;;;;18.44;65.04;100745.22;5004748;28;20531;-58
2022/08/28 00:14:44;;;;;;;7.22;4.22;;;;;;;18.35;65.39;100741.34;5003182;28;20029;-57
2022/08/28 00:17:10;;;;;;;7.55;4.68;;;;;;;18.19;65.69;100740.41;5009755;28;20109;-58
2022/08/28 00:19:37;;;;;;;6.05;4.40;;;;;;;18.27;65.33;100731.81;5012242;28;20022;-58
2022/08/28 00:22:03;;;;;;;4.38;3.78;;;;;;;18.05;66.62;100731.91;5009888;28;20022;-57
2022/08/28 00:24:30;;;;;;;5.22;3.65;;;;;;;17.99;67.12;100730.25;5011938;28;20124;-58
2022/08/28 00:29:40;;;;;;;8.50;3.90;;;;;;;17.75;67.65;100735.16;5012473;28;20044;-58
2022/08/28 00:32:07;;;;;;;5.25;3.58;;;;;;;17.95;67.70;100739.94;5000559;28;20037;-60
2022/08/28 00:34:34;;;;;;;3.65;2.95;;;;;;;17.96;67.11;100735.34;5010722;28;20026;-60
2022/08/28 00:37:00;;;;;;;6.03;3.35;;;;;;;17.78;66.89;100731.94;5011270;28;20030;-60
2022/08/28 00:39:27;;;;;;;8.07;3.53;;;;;;;17.90;67.17;100727.16;5011654;28;20123;-60
2022/08/28 00:41:53;;;;;;;5.30;3.08;;;;;;;17.82;66.97;100724.09;5009100;28;20061;-59
2022/08/28 00:44:23;;;;;;;7.03;4.30;;;;;;;17.74;67.65;100724.59;5012085;28;20053;-59
2022/08/28 00:46:51;;;;;;;5.13;3.30;;;;;;;17.83;67.45;100723.06;5005141;28;20041;-59
2022/08/28 00:49:23;;;;;;;5.85;2.83;;;;;;;17.88;66.78;100714.97;5012520;28;20030;-58
2022/08/28 00:52:10;;;;;;;8.15;3.60;;;;;;;17.72;67.76;100711.31;5011258;28;20440;-58
2022/08/28 00:54:52;;;;;;;11.23;3.63;;;;;;;17.71;68.20;100723.16;5011382;28;20034;-60
2022/08/28 00:57:23;;;;;;;4.97;3.45;;;;;;;17.81;69.00;100723.28;5012010;28;20022;-60
2022/08/28 00:59:49;;;;;;;9.48;3.85;;;;;;;18.06;67.67;100719.19;5011425;28;20029;-60
2022/08/28 01:02:15;;;;;;;3.38;2.88;;;;;;;17.94;67.53;100719.38;5011637;28;20357;-60
2022/08/28 01:04:42;;;;;;;7.22;3.40;;;;;;;18.05;67.44;100707.53;5001284;28;20022;-60
2022/08/28 01:07:13;;;;;;;5.20;3.25;;;;;;;18.10;67.53;100714.88;4992484;28;20484;-59
2022/08/28 01:09:44;;;;;;;3.72;2.97;;;;;;;18.10;67.20;100718.41;5004552;28;20037;-60
2022/08/28 01:12:17;;;;;;;4.03;2.28;;;;;;;17.96;67.46;100722.63;5011689;28;20032;-61
2022/08/28 01:14:45;;;;;;;8.68;3.83;;;;;;;18.11;67.24;100713.81;5010841;28;20476;-60
2022/08/28 01:17:14;;;;;;;22.27;4.30;;;;;;;17.89;68.07;100712.00;5007261;28;20038;-59
2022/08/28 01:19:45;;;;;;;4.60;2.63;;;;;;;17.83;68.22;100717.63;5000041;28;20053;-59
2022/08/28 01:22:11;;;;;;;5.03;2.92;;;;;;;17.79;68.21;100716.50;5011196;28;20088;-58
2022/08/28 01:24:39;;;;;;;5.63;3.63;;;;;;;17.56;68.71;100704.91;5004196;28;20041;-58
2022/08/28 01:27:05;;;;;;;4.40;3.10;;;;;;;17.57;68.94;100713.81;5010789;28;20037;-59
2022/08/28 01:29:32;;;;;;;5.78;3.03;;;;;;;17.40;68.74;100717.44;5011335;28;20060;-59
2022/08/28 01:31:58;;;;;;;4.80;3.08;;;;;;;17.26;69.93;100723.50;5010064;28;20369;-58
2022/08/28 01:34:25;;;;;;;5.93;2.83;;;;;;;17.01;70.57;100716.72;4993859;28;20030;-58
2022/08/28 01:36:51;;;;;;;7.07;3.47;;;;;;;16.98;71.34;100716.41;4999364;28;20076;-59
2022/08/28 01:39:21;;;;;;;6.05;3.10;;;;;;;17.04;71.20;100707.28;5014951;28;20018;-58
2022/08/28 01:41:53;;;;;;;5.03;3.30;;;;;;;16.87;71.58;100713.56;5014087;28;20103;-59
2022/08/28 01:44:24;;;;;;;8.35;3.20;;;;;;;16.91;71.80;100711.19;5015191;28;20026;-59
2022/08/28 01:46:57;;;;;;;19.02;3.38;;;;;;;16.76;72.21;100710.97;5014122;28;20097;-59
2022/08/28 01:49:27;;;;;;;9.68;3.95;;;;;;;16.41;73.26;100703.97;5015130;28;20092;-58
2022/08/28 01:51:54;;;;;;;14.88;4.72;;;;;;;16.50;73.15;100693.59;5012432;28;20033;-59
2022/08/28 01:54:20;;;;;;;13.00;4.57;;;;;;;16.34;73.89;100695.25;5014561;28;20479;-59
2022/08/28 01:56:47;;;;;;;16.25;4.68;;;;;;;16.20;74.52;100689.34;5014162;28;20030;-59
2022/08/28 01:59:14;;;;;;;19.52;5.18;;;;;;;16.26;74.26;100693.75;5014926;28;20099;-59
2022/08/28 02:01:41;;;;;;;19.58;6.00;;;;;;;16.26;74.45;100692.94;5013440;28;20041;-59
2022/08/28 02:04:08;;;;;;;23.85;5.85;;;;;;;16.29;74.86;100692.47;5014263;28;20037;-59
2022/08/28 02:06:35;;;;;;;19.70;6.10;;;;;;;16.45;74.65;100696.22;5013715;28;20018;-59
2022/08/28 02:09:01;;;;;;;24.98;6.55;;;;;;;16.48;74.09;100698.41;5010791;28;20032;-59
2022/08/28 02:11:31;;;;;;;19.48;6.05;;;;;;;16.50;74.26;100697.09;5011464;28;20040;-61
2022/08/28 02:14:00;;;;;;;23.48;6.32;;;;;;;16.54;73.55;100695.50;5013393;28;20037;-59
2022/08/28 02:16:27;;;;;;;28.75;8.57;;;;;;;16.56;73.45;100712.31;5010208;28;20037;-59
2022/08/28 02:18:55;;;;;;;26.10;6.90;;;;;;;16.55;73.71;100699.06;5013491;28;20061;-57
2022/08/28 02:21:22;;;;;;;25.83;6.85;;;;;;;16.53;73.29;100693.88;5013214;28;20148;-59
2022/08/28 02:23:48;;;;;;;30.30;7.30;;;;;;;16.40;73.81;100696.94;5013018;28;20372;-53
2022/08/28 02:26:15;;;;;;;22.80;7.13;;;;;;;16.29;74.51;100697.88;5010720;28;20404;-55
2022/08/28 02:28:42;;;;;;;38.70;8.27;;;;;;;16.25;74.53;100683.22;5013468;28;20498;-57
2022/08/28 02:31:09;;;;;;;29.50;7.72;;;;;;;16.15;74.90;100688.44;5003343;28;20091;-56
2022/08/28 02:33:38;;;;;;;30.42;7.97;;;;;;;16.18;74.47;100685.28;5012997;28;20176;-57
2022/08/28 02:36:08;;;;;;;32.03;7.32;;;;;;;16.24;74.16;100687.78;5014327;28;20465;-56
2022/08/28 02:38:35;;;;;;;36.63;8.02;;;;;;;16.16;74.25;100696.31;4999351;28;20059;-58
2022/08/28 02:41:02;;;;;;;35.55;8.48;;;;;;;16.13;74.71;100688.69;5009273;28;20065;-58
2022/08/28 02:43:28;;;;;;;29.52;7.70;;;;;;;16.12;74.69;100687.06;5024991;28;20033;-56
2022/08/28 02:45:54;;;;;;;37.28;8.20;;;;;;;16.09;74.54;100696.47;5024933;28;20057;-57
2022/08/28 02:48:20;;;;;;;27.17;7.28;;;;;;;16.05;74.49;100687.25;5013867;28;20034;-57
2022/08/28 02:50:46;;;;;;;26.85;7.40;;;;;;;15.99;74.83;100688.22;5014069;28;20037;-57
2022/08/28 02:53:13;;;;;;;25.33;7.63;;;;;;;15.76;75.67;100697.28;5004678;28;20097;-57
2022/08/28 02:55:39;;;;;;;28.80;8.00;;;;;;;15.83;75.53;100689.84;4994271;28;20496;-57
2022/08/28 02:58:08;;;;;;;33.60;7.65;;;;;;;15.92;74.93;100687.56;5003480;28;20030;-57
2022/08/28 03:00:35;;;;;;;38.50;8.60;;;;;;;15.81;75.71;100685.75;5000037;28;20026;-57
2022/08/28 03:03:01;;;;;;;31.10;8.23;;;;;;;15.86;75.35;100695.81;4994443;28;20396;-57
2022/08/28 03:05:27;;;;;;;38.65;8.52;;;;;;;15.89;75.46;100695.34;4994538;28;20022;-57
2022/08/28 03:07:54;;;;;;;23.98;7.72;;;;;;;15.81;76.01;100689.25;4993993;28;20026;-57
2022/08/28 03:10:21;;;;;;;25.98;7.47;;;;;;;15.77;75.53;100698.13;5002741;28;20088;-57
2022/08/28 03:12:48;;;;;;;25.17;6.72;;;;;;;15.82;75.85;100704.41;5010264;28;20032;-57
2022/08/28 03:15:15;;;;;;;33.90;8.07;;;;;;;15.89;75.66;100700.75;4998080;28;20056;-57
2022/08/28 03:17:41;;;;;;;27.10;8.30;;;;;;;15.77;75.98;100703.50;4995373;28;20030;-57
2022/08/28 03:20:10;;;;;;;28.95;8.07;;;;;;;15.78;75.89;100702.44;5013695;28;20030;-57
2022/08/28 03:25:23;;;;;;;31.38;7.88;;;;;;;15.90;75.50;100715.88;5014080;28;20064;-58
2022/08/28 03:27:50;;;;;;;34.15;8.30;;;;;;;15.92;75.36;100719.94;4999780;28;20436;-57
2022/08/28 03:30:17;;;;;;;32.88;8.77;;;;;;;15.88;75.41;100717.97;4998342;28;20022;-57
2022/08/28 03:32:44;;;;;;;34.50;7.55;;;;;;;15.73;75.67;100705.88;5013387;28;20021;-57
2022/08/28 03:35:11;;;;;;;34.80;9.27;;;;;;;15.76;75.60;100718.03;5008642;28;20030;-57
2022/08/28 03:37:37;;;;;;;32.53;8.23;;;;;;;15.68;75.69;100719.25;5003391;28;20040;-57
2022/08/28 03:40:05;;;;;;;34.10;8.23;;;;;;;15.71;76.05;100720.66;5012805;28;20113;-58
2022/08/28 03:42:32;;;;;;;28.63;7.75;;;;;;;15.58;76.21;100725.25;5012657;28;20030;-57
2022/08/28 03:44:58;;;;;;;26.60;7.70;;;;;;;15.74;75.80;100736.38;5012083;28;20021;-57
2022/08/28 03:47:27;;;;;;;38.17;9.40;;;;;;;15.69;75.94;100737.09;5023528;28;20475;-57
2022/08/28 03:49:57;;;;;;;32.03;8.98;;;;;;;15.74;75.62;100736.38;5032641;28;20537;-57
2022/08/28 03:52:23;;;;;;;35.35;8.25;;;;;;;15.67;75.90;100736.53;5032074;28;20065;-58
2022/08/28 03:54:51;;;;;;;32.22;8.23;;;;;;;15.70;76.19;100735.22;5000088;28;20488;-58
2022/08/28 03:57:19;;;;;;;29.25;7.68;;;;;;;15.75;75.96;100732.59;4999092;28;20376;-57
2022/08/28 03:59:51;;;;;;;31.23;8.73;;;;;;;15.71;76.11;100739.53;5013059;28;20467;-57
2022/08/28 04:02:19;;;;;;;29.30;8.63;;;;;;;15.72;75.90;100743.91;4995140;28;20069;-57
2022/08/28 04:04:50;;;;;;;32.83;9.38;;;;;;;15.71;75.72;100750.31;4997125;28;20026;-58
2022/08/28 04:07:18;;;;;;;24.90;8.10;;;;;;;15.61;76.03;100745.56;5012371;28;20026;-58
2022/08/28 04:09:45;;;;;;;39.35;8.45;;;;;;;15.73;75.92;100749.03;5012869;28;20045;-58
2022/08/28 04:12:11;;;;;;;37.92;8.70;;;;;;;15.54;76.41;100751.06;5012467;28;20454;-58
2022/08/28 04:14:38;;;;;;;39.45;8.88;;;;;;;15.43;76.77;100746.53;5012811;28;20413;-58
2022/08/28 04:17:05;;;;;;;26.58;8.40;;;;;;;15.48;76.60;100738.56;5007299;28;20432;-58
2022/08/28 04:19:32;;;;;;;26.73;8.70;;;;;;;15.44;76.86;100745.50;4993296;28;20033;-57
2022/08/28 04:22:00;;;;;;;36.95;9.32;;;;;;;15.42;76.96;100747.59;4992632;28;20105;-57
2022/08/28 04:24:26;;;;;;;26.48;8.60;;;;;;;15.50;76.43;100749.94;4992827;28;20503;-57
2022/08/28 04:26:52;;;;;;;29.92;9.43;;;;;;;15.54;76.55;100753.78;4992988;28;20026;-57
2022/08/28 04:29:19;;;;;;;22.25;8.68;;;;;;;15.50;76.66;100751.81;4992927;28;20030;-58
2022/08/28 04:31:46;;;;;;;36.75;8.80;;;;;;;15.50;76.68;100755.34;4992421;28;20046;-56
2022/08/28 04:34:12;;;;;;;30.58;8.43;;;;;;;15.58;76.40;100756.81;4992442;28;20381;-56
2022/08/28 04:36:38;;;;;;;33.05;8.50;;;;;;;15.51;76.76;100756.97;5014346;28;20132;-56
2022/08/28 04:39:07;;;;;;;28.35;8.88;;;;;;;15.52;76.75;100755.91;5025938;28;20188;-56
2022/08/28 04:41:37;;;;;;;33.80;9.35;;;;;;;15.54;76.51;100759.16;5020768;28;20057;-57
2022/08/28 04:44:04;;;;;;;29.88;9.27;;;;;;;15.47;76.60;100761.19;4994979;28;20476;-56
2022/08/28 04:46:31;;;;;;;37.00;9.75;;;;;;;15.57;75.87;100769.50;5021522;28;20040;-57
2022/08/28 04:48:58;;;;;;;26.55;8.10;;;;;;;15.48;76.25;100762.81;5022330;28;20136;-56
2022/08/28 04:51:25;;;;;;;23.90;7.45;;;;;;;15.48;76.33;100767.41;5010064;28;20030;-57
2022/08/28 04:53:51;;;;;;;27.00;8.05;;;;;;;15.45;76.27;100763.31;4992148;28;20120;-57
2022/08/28 04:56:17;;;;;;;33.33;8.85;;;;;;;15.50;76.18;100762.59;4992465;28;20049;-57
2022/08/28 04:58:44;;;;;;;35.25;8.43;;;;;;;15.53;76.11;100754.84;4992294;28;20030;-57
2022/08/28 05:01:14;;;;;;;34.47;9.20;;;;;;;15.57;75.87;100772.19;5001361;28;20025;-57
2022/08/28 05:03:41;;;;;;;31.88;8.57;;;;;;;15.50;76.27;100760.72;5011513;28;20034;-57
2022/08/28 05:06:07;;;;;;;27.75;8.38;;;;;;;15.48;76.22;100765.53;5012022;28;20483;-57
2022/08/28 05:08:34;;;;;;;32.70;9.38;;;;;;;15.48;75.92;100776.31;5012185;28;20075;-57
2022/08/28 05:11:15;;;;;;;32.95;8.45;;;;;;;15.42;75.91;100777.28;5011026;28;20026;-57
2022/08/28 05:13:42;;;;;;;29.42;8.27;;;;;;;15.45;75.78;100779.50;5014682;28;20383;-57
2022/08/28 05:16:08;;;;;;;29.70;8.15;;;;;;;15.41;75.66;100775.66;5014954;28;20199;-57
2022/08/28 05:18:35;;;;;;;29.77;8.43;;;;;;;15.43;75.74;100775.41;5015396;28;20087;-57
2022/08/28 05:21:01;;;;;;;42.47;8.95;;;;;;;15.34;76.06;100766.88;5014726;28;20108;-57
2022/08/28 05:23:28;;;;;;;31.13;9.38;;;;;;;15.37;76.00;100781.75;5015428;28;20029;-57
2022/08/28 05:25:55;;;;;;;44.22;8.65;;;;;;;15.38;75.77;100778.00;5014652;28;20026;-56
2022/08/28 05:28:25;;;;;;;28.38;9.20;;;;;;;15.39;75.85;100772.38;5014501;28;20037;-56
2022/08/28 05:30:51;;;;;;;29.70;8.13;;;;;;;15.36;75.99;100780.94;5014949;28;20056;-56
2022/08/28 05:33:18;;;;;;;35.88;8.18;;;;;;;15.33;75.59;100781.44;5015118;28;20578;-56
2022/08/28 05:35:46;;;;;;;33.53;8.57;;;;;;;15.28;76.06;100787.53;5010001;28;20122;-57
2022/08/28 05:38:15;;;;;;;32.33;8.65;;;;;;;15.22;76.29;100790.38;5007539;28;20486;-57
2022/08/28 05:40:44;;;;;;;30.23;8.20;;;;;;;15.26;76.23;100791.50;5020369;28;20083;-57
2022/08/28 05:43:13;;;;;;;29.17;8.38;;;;;;;15.28;76.27;100800.19;5025280;28;20080;-56
2022/08/28 05:45:40;;;;;;;31.20;8.65;;;;;;;15.40;75.17;100790.19;4998328;28;20026;-57
2022/08/28 05:48:07;;;;;;;28.05;7.93;;;;;;;15.46;74.94;100786.53;4996041;28;20026;-57
2022/08/28 05:50:35;;;;;;;31.20;7.40;;;;;;;15.45;75.26;100794.88;5001890;28;20084;-57
2022/08/28 05:53:01;;;;;;;33.45;9.60;;;;;;;15.41;75.28;100791.81;5015171;28;20054;-57
2022/08/28 05:55:28;;;;;;;37.10;9.82;;;;;;;15.39;75.54;100788.56;5014775;28;20081;-57
2022/08/28 05:57:54;;;;;;;37.80;8.02;;;;;;;15.47;75.00;100793.56;4997622;28;20018;-56
2022/08/28 06:00:20;;;;;;;28.70;8.00;;;;;;;15.39;75.45;100785.88;4998204;28;20025;-56
2022/08/28 06:02:46;;;;;;;39.05;8.82;;;;;;;15.32;75.53;100793.25;4999250;28;20105;-57
2022/08/28 06:05:13;;;;;;;34.60;8.45;;;;;;;15.40;75.30;100787.50;5014882;28;20026;-57
2022/08/28 06:07:40;;;;;;;29.35;8.05;;;;;;;15.50;75.16;100779.59;5014985;28;20506;-56
2022/08/28 06:10:06;;;;;;;34.15;7.60;;;;;;;15.46;74.99;100788.41;5014807;28;20468;-56
2022/08/28 06:12:32;;;;;;;31.80;8.32;;;;;;;15.38;75.65;100789.63;5014947;28;20037;-57
2022/08/28 06:14:58;;;;;;;30.63;8.88;;;;;;;15.46;74.89;100791.13;5010373;28;20030;-60
2022/08/28 06:17:25;;;;;;;29.63;8.70;;;;;;;15.37;75.07;100787.97;5006814;28;20109;-57
2022/08/28 06:19:51;;;;;;;32.35;7.50;;;;;;;15.40;74.95;100790.19;5006621;28;20042;-57
2022/08/28 06:22:17;;;;;;;32.55;7.50;;;;;;;15.44;74.80;100791.38;5013477;28;20029;-57
2022/08/28 06:24:43;;;;;;;31.98;8.32;;;;;;;15.41;74.47;100794.53;4997132;28;20105;-58
2022/08/28 06:27:10;;;;;;;27.10;8.10;;;;;;;15.32;74.88;100791.41;4995663;28;20042;-57
2022/08/28 06:29:36;;;;;;;30.48;7.68;;;;;;;15.30;75.00;100787.28;5014309;28;20030;-57
2022/08/28 06:32:05;;;;;;;36.50;8.50;;;;;;;15.32;75.23;100790.56;5014214;28;20022;-56
2022/08/28 06:34:31;;;;;;;38.85;7.97;;;;;;;15.32;75.06;100795.94;5014067;28;20038;-56
2022/08/28 06:36:58;;;;;;;29.30;7.93;;;;;;;15.20;75.49;100789.75;5013978;28;20048;-56
2022/08/28 06:39:24;;;;;;;36.80;7.97;;;;;;;15.28;75.22;100794.81;5014518;28;20088;-56
2022/08/28 06:41:50;;;;;;;35.25;8.80;;;;;;;15.29;74.98;100789.16;5012933;28;20056;-56
2022/08/28 06:44:18;;;;;;;33.90;8.85;;;;;;;15.28;75.42;100800.19;5014188;28;20049;-56
2022/08/28 06:46:47;;;;;;;34.38;8.13;;;;;;;15.22;75.60;100793.06;5013297;28;20121;-56
2022/08/28 06:49:13;;;;;;;32.03;7.95;;;;;;;15.27;75.20;100803.97;5014307;28;20034;-56
2022/08/28 06:51:40;;;;;;;42.53;8.52;;;;;;;15.29;75.60;100799.13;5013146;28;20465;-56
2022/08/28 06:54:06;;;;;;;30.52;8.70;;;;;;;15.29;75.36;100805.34;5013753;28;20073;-56
2022/08/28 06:56:33;;;;;;;31.95;9.30;;;;;;;15.31;75.53;100800.53;5013446;28;20097;-56
2022/08/28 06:58:59;;;;;;;23.92;7.38;;;;;;;15.28;75.74;100802.91;5013472;28;20500;-57
2022/08/28 07:01:32;;;;;;;39.25;8.68;;;;;;;15.26;75.42;100803.09;5012621;28;20034;-57
2022/08/28 07:04:02;;;;;;;30.17;8.38;;;;;;;15.30;75.47;100796.19;5013990;28;20030;-56
2022/08/28 07:06:35;;;;;;;31.50;8.05;;;;;;;15.32;75.31;100795.94;5012810;28;20030;-57
2022/08/28 07:09:04;;;;;;;31.98;7.38;;;;;;;15.29;75.35;100783.78;5013902;28;20065;-57
2022/08/28 07:11:32;;;;;;;30.10;8.63;;;;;;;15.26;75.65;100792.31;5012574;28;20037;-56
2022/08/28 07:14:00;;;;;;;34.05;8.13;;;;;;;15.23;75.61;100798.22;5013648;28;20120;-56
2022/08/28 07:16:29;;;;;;;29.63;7.75;;;;;;;15.33;75.40;100805.69;5012513;28;20069;-57
2022/08/28 07:18:56;;;;;;;31.58;7.88;;;;;;;15.28;75.37;100800.19;5013638;28;20030;-57
2022/08/28 07:21:22;;;;;;;29.63;8.48;;;;;;;15.34;75.30;100810.03;5012184;28;20048;-56
2022/08/28 07:23:49;;;;;;;31.60;7.75;;;;;;;15.25;75.16;100806.88;5013709;28;20101;-56
2022/08/28 07:26:22;;;;;;;27.38;7.90;;;;;;;15.36;74.99;100794.41;5012271;28;20058;-57
2022/08/28 07:28:50;;;;;;;28.88;7.50;;;;;;;15.30;75.15;100803.47;5013431;28;20479;-56
2022/08/28 07:31:25;;;;;;;30.50;8.15;;;;;;;15.17;75.65;100801.03;5012036;28;20041;-57
2022/08/28 07:33:53;;;;;;;30.85;7.75;;;;;;;15.25;75.40;100796.09;5012706;28;20049;-57
2022/08/28 07:36:24;;;;;;;39.75;8.85;;;;;;;15.25;75.69;100800.66;5011619;28;20129;-57
2022/08/28 07:38:50;;;;;;;31.80;8.23;;;;;;;15.34;75.21;100803.81;5013182;28;20034;-57
2022/08/28 07:41:22;;;;;;;36.03;8.95;;;;;;;15.32;75.51;100810.28;5011821;28;20133;-57
2022/08/28 07:46:36;;;;;;;33.40;9.65;;;;;;;15.35;75.59;100806.28;4994128;28;20730;-57
2022/08/28 07:49:03;;;;;;;36.80;7.65;;;;;;;15.24;75.44;100802.53;5009952;28;20033;-57
2022/08/28 07:51:30;;;;;;;31.05;8.07;;;;;;;15.32;75.71;100799.50;5011705;28;20090;-57
2022/08/28 07:53:57;;;;;;;27.33;7.95;;;;;;;15.41;75.45;100794.53;5012853;28;20136;-56
2022/08/28 07:56:25;;;;;;;34.60;9.27;;;;;;;15.31;75.78;100802.41;5010743;28;20042;-56
2022/08/28 07:58:51;;;;;;;29.45;7.82;;;;;;;15.37;75.65;100798.75;5013039;28;20113;-57
2022/08/28 08:01:18;;;;;;;31.98;7.82;;;;;;;15.43;75.05;100802.38;4993928;28;20022;-57
2022/08/28 08:03:44;;;;;;;24.08;7.57;;;;;;;15.27;76.02;100809.34;5013172;28;20442;-57
2022/08/28 08:06:12;;;;;;;34.42;8.15;;;;;;;15.47;75.18;100807.06;5011843;28;20057;-57
2022/08/28 08:08:40;;;;;;;28.45;8.18;;;;;;;15.37;75.49;100792.53;5012960;28;20503;-57
2022/08/28 08:11:09;;;;;;;42.97;9.45;;;;;;;15.44;75.21;100804.84;5011598;28;20030;-57
2022/08/28 08:13:38;;;;;;;29.92;8.57;;;;;;;15.37;75.21;100793.34;5011742;28;20480;-57
2022/08/28 08:16:09;;;;;;;31.45;8.55;;;;;;;15.36;75.13;100791.72;5012500;28;20484;-57
2022/08/28 08:18:36;;;;;;;29.13;8.23;;;;;;;15.24;75.90;100791.75;5010665;28;20384;-56
2022/08/28 08:21:08;;;;;;;31.83;8.55;;;;;;;15.21;75.83;100789.53;4995012;28;20046;-57
2022/08/28 08:23:37;;;;;;;31.00;8.13;;;;;;;15.29;75.42;100791.03;4991849;28;20030;-57
2022/08/28 08:26:06;;;;;;;35.88;8.18;;;;;;;15.30;75.34;100792.69;4990560;28;20034;-57
2022/08/28 08:28:34;;;;;;;33.40;7.93;;;;;;;15.26;75.50;100797.72;4991926;28;20038;-57
2022/08/28 08:31:10;;;;;;;35.53;9.35;;;;;;;15.30;75.36;100790.78;4996748;28;20073;-57
2022/08/28 08:33:39;;;;;;;31.90;8.32;;;;;;;15.22;75.39;100798.44;4991584;28;20476;-57
2022/08/28 08:36:06;;;;;;;34.05;8.63;;;;;;;15.22;75.06;100793.06;4991768;28;20046;-56
2022/08/28 08:38:34;;;;;;;25.90;7.60;;;;;;;15.19;75.24;100785.44;4993514;28;20099;-57
2022/08/28 08:41:03;;;;;;;32.05;7.25;;;;;;;15.28;74.88;100790.22;4991687;28;20066;-57
2022/08/28 08:43:34;;;;;;;39.95;8.68;;;;;;;15.35;74.64;100794.66;4992328;28;20384;-56
2022/08/28 08:46:01;;;;;;;34.17;8.93;;;;;;;15.28;75.05;100784.84;4991747;28;20018;-57
2022/08/28 08:48:33;;;;;;;28.08;7.53;;;;;;;15.38;74.95;100791.47;4999020;28;20068;-56
2022/08/28 08:51:04;;;;;;;29.73;7.70;;;;;;;15.40;75.20;100794.78;4995903;28;20030;-56
2022/08/28 08:54:13;;;;;;;33.63;9.15;;;;;;;15.42;75.04;100795.34;4998346;28;20057;-57
2022/08/28 08:56:42;;;;;;;24.48;7.78;;;;;;;15.37;75.18;100804.16;5011138;28;20102;-57
2022/08/28 08:59:18;;;;;;;32.70;8.60;;;;;;;15.29;75.42;100799.13;5009729;28;20041;-57
2022/08/28 09:01:49;;;;;;;31.20;8.32;;;;;;;15.24;75.91;100807.13;5006893;28;20361;-57
2022/08/28 09:04:39;;;;;;;31.20;9.52;;;;;;;15.22;75.57;100809.25;4994216;28;20041;-57
2022/08/28 09:07:23;;;;;;;49.65;10.25;;;;;;;15.34;75.54;100809.22;5001136;28;20050;-57
2022/08/28 09:09:54;;;;;;;29.00;9.20;;;;;;;15.38;75.09;100807.66;5011636;28;20026;-57
2022/08/28 09:12:22;;;;;;;35.17;8.60;;;;;;;15.40;74.97;100814.47;4992014;28;20029;-57
2022/08/28 09:15:08;;;;;;;35.92;9.13;;;;;;;15.18;75.98;100810.75;5002979;28;20081;-56
2022/08/28 09:17:43;;;;;;;35.58;9.00;;;;;;;15.28;75.75;100810.97;5006289;28;20029;-57
2022/08/28 09:20:13;;;;;;;32.92;9.27;;;;;;;15.30;76.02;100815.06;4994907;28;20030;-57
2022/08/28 09:22:45;;;;;;;28.90;8.43;;;;;;;15.28;75.86;100810.97;5005745;28;20125;-57
2022/08/28 09:25:32;;;;;;;30.38;9.13;;;;;;;15.36;75.83;100816.00;4995686;28;20052;-56
2022/08/28 09:28:06;;;;;;;31.70;8.63;;;;;;;15.41;75.43;100810.72;4992081;28;20026;-57
2022/08/28 09:30:34;;;;;;;32.65;9.20;;;;;;;15.39;75.78;100812.00;4992016;28;20027;-57
2022/08/28 09:33:00;;;;;;;34.55;10.27;;;;;;;15.30;75.71;100816.94;4974239;28;20216;-57
2022/08/28 09:35:29;;;;;;;26.33;8.57;;;;;;;15.25;75.96;100819.53;5010751;28;20092;-57
2022/08/28 09:38:23;;;;;;;27.88;9.45;;;;;;;15.21;76.01;100813.81;5011545;28;20029;-56
2022/08/28 09:43:50;;;;;;;28.20;9.07;;;;;;;15.35;75.98;100800.06;4992372;28;20483;-57
2022/08/28 09:46:28;;;;;;;40.40;10.65;;;;;;;15.31;76.16;100799.69;4992195;28;20022;-57
2022/08/28 09:49:11;;;;;;;31.63;9.77;;;;;;;15.26;76.37;100802.28;4994691;28;20109;-57
2022/08/28 09:51:38;;;;;;;28.52;9.48;;;;;;;15.28;76.54;100806.41;5031088;28;20490;-57
2022/08/28 09:54:29;;;;;;;32.28;9.65;;;;;;;15.26;76.78;100807.69;5030682;28;20037;-56
2022/08/28 09:56:56;;;;;;;37.03;9.80;;;;;;;15.19;77.49;100809.69;5031296;28;20044;-57
2022/08/28 09:59:25;;;;;;;37.90;9.68;;;;;;;15.22;77.85;100820.03;5014318;28;20105;-57
2022/08/28 10:01:57;;;;;;;28.17;9.77;;;;;;;15.28;77.60;100814.50;5015020;28;20069;-56
2022/08/28 10:04:36;;;;;;;24.55;10.27;;;;;;;15.20;77.81;100816.72;5014877;28;20034;-56
2022/08/28 10:07:18;;;;;;;33.53;9.75;;;;;;;15.32;77.61;100817.53;5014989;28;20037;-57
2022/08/28 10:10:19;;;;;;;29.00;9.18;;;;;;;15.27;77.61;100818.25;5014058;28;20037;-57
2022/08/28 10:12:45;;;;;;;25.50;9.52;;;;;;;15.32;77.50;100821.06;4995646;28;20532;-57
2022/08/28 10:15:24;;;;;;;29.85;9.25;;;;;;;15.16;78.40;100819.09;4995889;28;20041;-57
2022/08/28 10:18:25;;;;;;;27.48;10.02;;;;;;;15.31;78.45;100815.88;5006842;23;20117;-57
2022/08/28 10:21:00;;;;;;;36.88;10.70;;;;;;;15.37;77.92;100822.19;5044480;28;20128;-57
2022/08/28 10:23:51;;;;;;;31.02;10.23;;;;;;;15.36;78.42;100815.19;5033694;28;20026;-57
2022/08/28 10:26:39;;;;;;;27.77;10.90;;;;;;;15.29;78.65;100821.53;5033916;28;20043;-56
2022/08/28 10:29:24;;;;;;;30.55;10.10;;;;;;;15.30;78.64;100823.16;5034211;28;20025;-57
2022/08/28 10:32:13;;;;;;;24.25;10.73;;;;;;;15.46;78.08;100829.69;5034577;28;20553;-56
2022/08/28 10:34:45;;;;;;;24.52;10.80;;;;;;;15.42;78.48;100833.91;5034020;28;20052;-57
2022/08/28 10:37:20;;;;;;;25.15;11.40;;;;;;;15.49;78.13;100828.38;5033964;28;20384;-57
2022/08/28 10:39:59;;;;;;;26.70;9.95;;;;;;;15.51;78.06;100815.50;5033405;28;20025;-57
2022/08/28 10:42:37;;;;;;;25.08;11.18;;;;;;;15.47;78.44;100817.84;5033508;28;20092;-57
2022/08/28 10:45:14;;;;;;;27.65;10.07;;;;;;;15.57;78.39;100812.66;5033722;28;20025;-57
2022/08/28 10:47:47;;;;;;;27.98;10.60;;;;;;;15.56;78.53;100813.72;5050603;28;20386;-57
2022/08/28 10:50:28;;;;;;;30.02;12.15;;;;;;;15.38;78.82;100811.19;5053491;28;20093;-57
2022/08/28 10:53:13;;;;;;;26.63;12.27;;;;;;;15.35;78.94;100817.06;5035613;28;20027;-57
2022/08/28 10:55:56;;;;;;;28.38;11.60;;;;;;;15.53;78.54;100816.88;5032922;28;20060;-57
2022/08/28 10:58:25;;;;;;;28.42;10.45;;;;;;;15.52;78.27;100811.72;5033394;28;20108;-56
2022/08/28 11:01:06;;;;;;;33.50;12.18;;;;;;;15.43;78.41;100803.19;5032915;28;20122;-57
2022/08/28 11:03:40;;;;;;;28.15;10.57;;;;;;;15.48;78.48;100800.59;5052839;28;20048;-57
2022/08/28 11:06:20;;;;;;;30.30;10.75;;;;;;;15.51;78.27;100793.91;5051860;28;22074;-57
2022/08/28 11:08:56;;;;;;;22.40;11.02;;;;;;;15.55;78.23;100795.91;5053307;28;20036;-57
2022/08/28 11:11:42;;;;;;;25.52;10.73;;;;;;;15.56;78.42;100796.72;5038113;28;20483;-57
2022/08/28 11:14:09;;;;;;;33.92;11.18;;;;;;;15.49;78.12;100785.22;5033067;28;20029;-57
2022/08/28 11:16:43;;;;;;;28.45;10.57;;;;;;;15.54;78.32;100783.44;5032859;28;20032;-57
2022/08/28 11:19:38;;;;;;;29.05;10.88;;;;;;;15.54;78.36;100782.63;5032998;28;20164;-57
2022/08/28 11:22:22;;;;;;;25.35;11.23;;;;;;;15.61;77.87;100779.81;5042855;28;20057;-57
2022/08/28 11:25:03;;;;;;;23.50;11.15;;;;;;;15.56;78.06;100780.53;5037365;28;20040;-57
2022/08/28 11:27:35;;;;;;;27.35;10.65;;;;;;;15.58;78.18;100778.41;5032769;28;20092;-57
2022/08/28 11:30:34;;;;;;;26.98;10.75;;;;;;;15.44;78.67;100775.19;5037326;28;20480;-57
2022/08/28 11:33:03;;;;;;;25.63;10.82;;;;;;;15.48;79.05;100781.72;5033791;28;20116;-57
2022/08/28 11:35:29;;;;;;;22.60;11.07;;;;;;;15.49;78.51;100780.69;5035601;28;20483;-58
2022/08/28 11:37:57;;;;;;;26.20;11.05;;;;;;;15.53;78.34;100781.81;5032846;28;20033;-57
2022/08/28 11:40:32;;;;;;;28.50;11.38;;;;;;;15.65;77.93;100792.59;5045617;28;20025;-57